createdAt,value
2019-03-25T09:23:57.958Z,49.00
2019-03-25T09:33:59.251Z,46.50
2019-03-25T09:44:00.546Z,46.10
2019-03-25T09:54:01.852Z,43.60
2019-03-25T10:04:03.128Z,49.50
2019-03-25T10:14:04.458Z,55.70
2019-03-25T10:24:05.806Z,58.40
2019-03-25T10:34:07.097Z,64.40
2019-03-25T10:44:08.394Z,66.70
2019-03-25T10:54:09.703Z,74.40
2019-03-25T11:04:11.041Z,73.90
2019-03-25T11:14:12.430Z,95.70
2019-03-25T16:53:16.600Z,50.70
2019-03-25T17:03:17.894Z,47.70
2019-03-25T17:13:19.164Z,47.70
2019-03-25T17:23:20.509Z,47.30
2019-03-25T17:33:21.801Z,49.80
2019-03-25T17:43:23.257Z,50.90
2019-03-25T17:53:25.524Z,54.20
2019-03-25T18:03:26.858Z,54.20
2019-03-25T18:13:28.436Z,53.70
2019-03-25T18:23:29.943Z,54.70
2019-03-25T18:33:31.396Z,55.30
2019-03-25T18:43:32.887Z,55.70
2019-03-25T18:53:35.206Z,55.00
2019-03-25T19:03:36.625Z,51.70
2019-03-25T19:13:37.895Z,51.30
2019-03-25T19:23:39.316Z,50.40
2019-03-25T19:33:40.589Z,49.90
2019-03-25T19:43:44.280Z,50.10
2019-03-25T19:53:45.560Z,49.20
2019-03-25T20:03:46.853Z,49.50
2019-03-25T20:13:48.209Z,52.00
2019-03-25T20:23:50.649Z,52.80
2019-03-25T20:33:50.786Z,53.50
2019-03-25T20:43:52.091Z,54.10
2019-03-25T20:53:53.371Z,54.90
2019-03-25T21:03:54.693Z,53.60
2019-03-25T21:13:55.946Z,55.70
2019-03-25T21:23:57.290Z,55.40
2019-03-25T21:33:58.631Z,56.50
2019-03-25T21:44:00.667Z,56.30
2019-03-25T21:54:02.000Z,56.80
2019-03-25T22:04:03.267Z,56.60
2019-03-25T22:14:04.557Z,57.40
2019-03-25T22:24:05.839Z,58.50
2019-03-25T22:34:07.112Z,60.30
2019-03-25T22:44:09.154Z,65.50
